createdAt,value
2022-09-29T00:00:22.890Z,100.00
2022-09-29T00:03:24.776Z,100.00
2022-09-29T00:06:26.427Z,100.00
2022-09-29T00:09:28.040Z,100.00
2022-09-29T00:12:29.587Z,100.00
2022-09-29T00:15:31.212Z,100.00
2022-09-29T00:18:33.126Z,100.00
2022-09-29T00:21:34.685Z,100.00
2022-09-29T00:24:36.242Z,100.00
2022-09-29T00:27:37.965Z,100.00
2022-09-29T00:30:39.530Z,100.00
2022-09-29T00:33:41.291Z,100.00
2022-09-29T00:36:42.806Z,100.00
2022-09-29T00:39:44.368Z,100.00
2022-09-29T00:42:45.935Z,100.00
2022-09-29T00:45:47.635Z,100.00
2022-09-29T00:48:49.227Z,100.00
2022-09-29T00:51:58.405Z,100.00
2022-09-29T00:55:06.099Z,100.00
2022-09-29T00:58:09.266Z,100.00
2022-09-29T01:01:11.633Z,100.00
2022-09-29T01:04:14.551Z,100.00
2022-09-29T01:07:16.143Z,100.00
2022-09-29T01:10:17.798Z,100.00
2022-09-29T01:13:19.487Z,100.00
2022-09-29T01:16:21.097Z,100.00
2022-09-29T01:19:41.115Z,100.00
2022-09-29T01:23:01.138Z,100.00
2022-09-29T01:26:21.519Z,100.00
2022-09-29T01:29:41.581Z,100.00
2022-09-29T01:32:58.262Z,100.00
2022-09-29T01:36:02.611Z,100.00
2022-09-29T01:39:13.341Z,100.00
2022-09-29T01:42:14.873Z,100.00
2022-09-29T01:45:18.533Z,100.00
2022-09-29T01:48:22.625Z,100.00
2022-09-29T01:51:56.790Z,100.00
2022-09-29T01:54:59.724Z,100.00
2022-09-29T01:58:02.392Z,100.00
2022-09-29T02:01:09.834Z,100.00
2022-09-29T02:04:13.658Z,100.00
2022-09-29T02:07:17.255Z,100.00
2022-09-29T02:10:29.930Z,100.00
2022-09-29T02:13:46.837Z,100.00
2022-09-29T02:16:49.218Z,100.00
2022-09-29T02:19:51.486Z,100.00
2022-09-29T02:22:53.047Z,100.00
2022-09-29T02:25:54.629Z,100.00
2022-09-29T02:28:56.245Z,100.00
2022-09-29T02:32:01.424Z,100.00
2022-09-29T02:35:07.008Z,100.00
2022-09-29T02:38:14.932Z,100.00
2022-09-29T02:41:26.769Z,100.00
2022-09-29T02:44:57.717Z,100.00
2022-09-29T02:47:59.169Z,100.00
2022-09-29T02:51:07.683Z,100.00
2022-09-29T02:54:35.429Z,100.00
2022-09-29T02:57:36.936Z,100.00
2022-09-29T03:00:38.535Z,100.00
2022-09-29T03:03:40.237Z,100.00
2022-09-29T03:06:41.842Z,100.00
2022-09-29T03:09:44.570Z,100.00
2022-09-29T03:12:47.354Z,100.00
2022-09-29T03:15:49.021Z,100.00
2022-09-29T03:18:50.928Z,100.00
2022-09-29T03:21:52.587Z,100.00
2022-09-29T03:24:54.121Z,100.00
2022-09-29T03:27:55.648Z,100.00
2022-09-29T03:30:57.191Z,100.00
2022-09-29T03:33:58.750Z,100.00
2022-09-29T03:37:00.385Z,100.00
2022-09-29T03:40:02.319Z,100.00
2022-09-29T03:43:03.898Z,100.00
2022-09-29T03:46:06.106Z,100.00
2022-09-29T03:49:10.020Z,100.00
2022-09-29T03:52:11.869Z,100.00
2022-09-29T03:55:13.418Z,100.00
2022-09-29T03:58:15.358Z,100.00
2022-09-29T04:01:16.979Z,100.00
2022-09-29T04:04:18.604Z,100.00
2022-09-29T04:07:20.129Z,100.00
2022-09-29T04:10:21.954Z,100.00
2022-09-29T04:13:23.496Z,100.00
2022-09-29T04:16:25.102Z,100.00
2022-09-29T04:19:26.701Z,100.00
2022-09-29T04:22:28.281Z,100.00
2022-09-29T04:25:29.912Z,100.00
2022-09-29T04:28:32.158Z,100.00
2022-09-29T04:31:33.796Z,100.00
2022-09-29T04:34:35.408Z,100.00
2022-09-29T04:37:37.065Z,100.00
2022-09-29T04:40:38.827Z,100.00
2022-09-29T04:43:40.393Z,100.00
2022-09-29T04:46:42.429Z,100.00
2022-09-29T04:49:43.972Z,100.00
2022-09-29T04:52:45.566Z,100.00
2022-09-29T04:55:47.122Z,100.00
2022-09-29T04:58:48.729Z,100.00
2022-09-29T05:01:50.340Z,100.00
2022-09-29T05:04:51.964Z,100.00
2022-09-29T05:07:53.524Z,100.00
2022-09-29T05:10:55.085Z,100.00
2022-09-29T05:13:56.786Z,100.00
2022-09-29T05:16:58.465Z,100.00
2022-09-29T05:20:00.086Z,100.00
2022-09-29T05:23:01.675Z,100.00
2022-09-29T05:26:04.091Z,100.00
2022-09-29T05:29:05.647Z,100.00
2022-09-29T05:32:07.207Z,100.00
2022-09-29T05:35:09.077Z,100.00
2022-09-29T05:38:10.606Z,100.00
2022-09-29T05:41:12.586Z,100.00
2022-09-29T05:44:14.143Z,100.00
2022-09-29T05:47:15.737Z,100.00
2022-09-29T05:50:17.286Z,100.00
2022-09-29T05:53:18.858Z,100.00
2022-09-29T05:56:21.524Z,100.00
2022-09-29T05:59:23.299Z,100.00
2022-09-29T06:02:24.879Z,100.00
2022-09-29T06:05:26.984Z,100.00
2022-09-29T06:08:28.546Z,100.00
2022-09-29T06:11:33.632Z,100.00
2022-09-29T06:14:35.183Z,100.00
2022-09-29T06:17:36.931Z,100.00
2022-09-29T06:20:38.538Z,100.00
2022-09-29T06:23:40.442Z,100.00
2022-09-29T06:26:41.977Z,100.00
2022-09-29T06:29:43.526Z,100.00
2022-09-29T06:32:45.069Z,100.00
2022-09-29T06:36:05.778Z,100.00
2022-09-29T06:39:07.977Z,100.00
2022-09-29T06:42:09.526Z,100.00
2022-09-29T06:45:11.113Z,100.00
2022-09-29T06:48:12.624Z,100.00
2022-09-29T06:51:14.918Z,100.00
2022-09-29T06:54:17.942Z,100.00
2022-09-29T06:57:19.465Z,100.00
2022-09-29T07:00:21.023Z,100.00
2022-09-29T07:03:22.574Z,100.00
2022-09-29T07:06:24.131Z,100.00
2022-09-29T07:09:25.666Z,100.00
2022-09-29T07:12:27.144Z,100.00
2022-09-29T07:15:31.869Z,100.00
2022-09-29T07:18:37.821Z,100.00
2022-09-29T07:21:39.417Z,100.00
2022-09-29T07:24:40.934Z,100.00
2022-09-29T07:27:42.483Z,100.00
2022-09-29T07:30:44.552Z,100.00
2022-09-29T07:33:47.395Z,100.00
2022-09-29T07:36:49.123Z,100.00
2022-09-29T07:39:50.844Z,100.00
2022-09-29T07:42:52.365Z,100.00
2022-09-29T07:45:53.895Z,100.00
2022-09-29T07:48:55.448Z,100.00
2022-09-29T07:51:56.949Z,100.00
2022-09-29T07:54:58.521Z,100.00
2022-09-29T07:58:01.350Z,100.00
2022-09-29T08:01:05.376Z,100.00
2022-09-29T08:04:06.970Z,100.00
2022-09-29T08:07:08.681Z,100.00
2022-09-29T08:10:17.081Z,100.00
2022-09-29T08:13:19.354Z,100.00
2022-09-29T08:16:21.041Z,100.00
2022-09-29T08:19:22.705Z,100.00
2022-09-29T08:22:24.247Z,100.00
2022-09-29T08:25:26.258Z,100.00
2022-09-29T08:28:31.908Z,100.00
2022-09-29T08:31:34.336Z,100.00
2022-09-29T08:34:36.681Z,100.00
2022-09-29T08:37:38.906Z,100.00
2022-09-29T08:40:40.518Z,100.00
2022-09-29T08:43:42.540Z,100.00
2022-09-29T08:47:03.177Z,100.00
2022-09-29T08:50:12.654Z,100.00
2022-09-29T08:53:25.805Z,100.00
2022-09-29T08:56:29.449Z,100.00
2022-09-29T08:59:31.339Z,100.00
2022-09-29T09:02:56.324Z,100.00
2022-09-29T09:06:11.149Z,100.00
2022-09-29T09:09:19.002Z,100.00
2022-09-29T09:12:20.541Z,100.00
2022-09-29T09:15:25.129Z,100.00
2022-09-29T09:18:47.802Z,100.00
2022-09-29T09:21:51.749Z,100.00
2022-09-29T09:24:56.865Z,100.00
2022-09-29T09:28:24.464Z,100.00
2022-09-29T09:31:46.197Z,100.00
2022-09-29T09:34:56.619Z,100.00
2022-09-29T09:38:04.690Z,100.00
2022-09-29T09:41:06.521Z,100.00
2022-09-29T09:44:13.833Z,100.00
2022-09-29T09:47:23.697Z,100.00
2022-09-29T09:50:25.410Z,100.00
2022-09-29T09:53:33.499Z,100.00
2022-09-29T09:56:36.091Z,99.72
2022-09-29T09:59:56.522Z,100.00
2022-09-29T10:03:01.550Z,99.44
2022-09-29T10:06:03.686Z,99.56
2022-09-29T10:09:05.267Z,100.00
2022-09-29T10:12:08.265Z,100.00
2022-09-29T10:15:28.931Z,100.00
2022-09-29T10:18:30.588Z,100.00
2022-09-29T10:21:32.146Z,100.00
2022-09-29T10:24:33.750Z,98.82
2022-09-29T10:27:35.379Z,96.75
2022-09-29T10:30:36.975Z,96.51
2022-09-29T10:33:38.538Z,97.36
2022-09-29T10:36:49.209Z,97.00
2022-09-29T10:39:51.033Z,97.09
2022-09-29T10:42:53.499Z,96.93
2022-09-29T10:45:58.650Z,97.39
2022-09-29T10:49:10.018Z,96.92
2022-09-29T10:52:25.231Z,95.71
2022-09-29T10:55:27.705Z,94.56
2022-09-29T10:58:58.518Z,93.16
2022-09-29T11:01:55.859Z,91.77
2022-09-29T11:04:58.616Z,91.04
2022-09-29T11:08:00.202Z,88.39
2022-09-29T11:11:04.802Z,88.06
2022-09-29T11:14:06.538Z,88.76
2022-09-29T11:17:31.453Z,89.39
2022-09-29T11:20:34.242Z,90.17
2022-09-29T11:23:56.034Z,90.96
2022-09-29T11:27:16.315Z,90.21
2022-09-29T11:30:21.175Z,91.02
2022-09-29T11:33:22.685Z,91.70
2022-09-29T11:36:27.472Z,90.53
2022-09-29T11:39:48.119Z,88.89
2022-09-29T11:42:55.535Z,87.63
2022-09-29T11:46:15.630Z,86.50
2022-09-29T11:49:27.930Z,80.25
2022-09-29T11:52:29.423Z,82.92
2022-09-29T11:55:49.566Z,83.92
2022-09-29T11:58:57.861Z,86.07
2022-09-29T12:02:08.515Z,86.70
2022-09-29T12:05:23.298Z,84.87
2022-09-29T12:08:24.816Z,84.18
2022-09-29T12:12:11.569Z,83.20
2022-09-29T12:15:41.133Z,81.75
2022-09-29T12:18:50.146Z,78.40
2022-09-29T12:21:52.508Z,78.79
2022-09-29T12:24:54.857Z,79.80
2022-09-29T12:28:16.627Z,82.29
2022-09-29T12:31:23.130Z,84.38
2022-09-29T12:34:38.787Z,81.58
2022-09-29T12:37:48.461Z,75.93
2022-09-29T12:40:58.080Z,76.91
2022-09-29T12:44:16.267Z,77.10
2022-09-29T12:47:36.766Z,72.23
2022-09-29T12:50:57.227Z,74.61
2022-09-29T12:53:58.826Z,73.03
2022-09-29T12:57:09.665Z,67.84
2022-09-29T13:00:14.607Z,71.08
2022-09-29T13:03:16.136Z,72.39
2022-09-29T13:06:20.478Z,75.76
2022-09-29T13:09:31.674Z,78.38
2022-09-29T13:12:56.664Z,79.45
2022-09-29T13:16:01.849Z,79.94
2022-09-29T13:19:22.884Z,79.41
2022-09-29T13:22:34.021Z,73.85
2022-09-29T13:25:41.632Z,73.79
2022-09-29T13:28:44.489Z,70.41
2022-09-29T13:31:46.565Z,69.10
2022-09-29T13:34:49.768Z,69.30
2022-09-29T13:38:02.105Z,70.78
2022-09-29T13:41:15.307Z,71.13
2022-09-29T13:44:16.910Z,65.84
2022-09-29T13:47:31.802Z,60.31
2022-09-29T13:50:45.663Z,65.36
2022-09-29T13:53:47.426Z,68.25
2022-09-29T13:56:49.796Z,71.61
2022-09-29T13:59:57.174Z,73.84
2022-09-29T14:03:05.514Z,75.28
2022-09-29T14:06:39.641Z,77.34
2022-09-29T14:09:44.160Z,68.30
2022-09-29T14:12:50.256Z,62.52
2022-09-29T14:15:54.592Z,57.73
2022-09-29T14:19:07.767Z,56.35
2022-09-29T14:22:28.136Z,62.21
2022-09-29T14:25:31.295Z,59.41
2022-09-29T14:28:35.377Z,54.61
2022-09-29T14:31:36.911Z,58.74
2022-09-29T14:34:39.329Z,63.59
2022-09-29T14:37:40.883Z,67.25
2022-09-29T14:41:00.702Z,70.38
2022-09-29T14:44:08.914Z,72.83
2022-09-29T14:47:35.218Z,73.64
2022-09-29T14:51:12.242Z,68.80
2022-09-29T14:54:32.922Z,62.26
2022-09-29T14:57:46.678Z,64.19
2022-09-29T15:00:51.617Z,67.94
2022-09-29T15:03:53.783Z,71.54
2022-09-29T15:06:55.349Z,75.22
2022-09-29T15:09:58.185Z,77.16
2022-09-29T15:13:16.374Z,80.02
2022-09-29T15:16:21.240Z,80.66
2022-09-29T15:19:23.661Z,81.25
2022-09-29T15:22:45.552Z,70.70
2022-09-29T15:25:47.280Z,65.56
2022-09-29T15:28:49.451Z,60.28
2022-09-29T15:31:50.953Z,58.63
2022-09-29T15:34:56.028Z,60.76
2022-09-29T15:38:18.212Z,65.80
2022-09-29T15:41:20.566Z,70.15
2022-09-29T15:44:22.265Z,73.18
2022-09-29T15:47:28.385Z,72.32
2022-09-29T15:50:35.691Z,64.93
2022-09-29T15:53:39.141Z,60.59
2022-09-29T15:56:58.904Z,59.17
2022-09-29T16:00:03.613Z,59.24
2022-09-29T16:03:30.258Z,57.22
2022-09-29T16:06:32.624Z,57.70
2022-09-29T16:09:34.197Z,55.58
2022-09-29T16:12:39.459Z,57.99
2022-09-29T16:15:45.045Z,57.45
2022-09-29T16:18:47.094Z,58.89
2022-09-29T16:21:56.149Z,59.96
2022-09-29T16:25:16.502Z,61.82
2022-09-29T16:28:25.185Z,64.70
2022-09-29T16:31:27.528Z,61.80
2022-09-29T16:34:30.285Z,58.42
2022-09-29T16:37:31.803Z,57.33
2022-09-29T16:40:33.734Z,57.66
2022-09-29T16:43:35.341Z,57.10
2022-09-29T16:46:49.190Z,59.11
2022-09-29T16:49:54.205Z,59.52
2022-09-29T16:52:55.864Z,61.50
2022-09-29T16:56:01.279Z,60.27
2022-09-29T16:59:08.706Z,64.83
2022-09-29T17:02:10.572Z,68.47
2022-09-29T17:05:12.130Z,67.35
2022-09-29T17:08:16.509Z,65.84
2022-09-29T17:11:18.131Z,66.06
2022-09-29T17:14:21.513Z,65.50
2022-09-29T17:17:23.686Z,66.13
2022-09-29T17:20:29.967Z,67.29
2022-09-29T17:23:44.128Z,72.18
2022-09-29T17:27:04.523Z,74.57
2022-09-29T17:30:06.326Z,77.92
2022-09-29T17:33:09.790Z,79.56
2022-09-29T17:36:12.567Z,81.60
2022-09-29T17:39:14.125Z,82.74
2022-09-29T17:42:15.633Z,84.11
2022-09-29T17:45:19.097Z,85.38
2022-09-29T17:48:20.608Z,86.23
2022-09-29T17:51:22.166Z,87.06
2022-09-29T17:54:27.131Z,88.16
2022-09-29T17:57:29.036Z,89.34
2022-09-29T18:00:40.227Z,90.56
2022-09-29T18:03:42.287Z,91.60
2022-09-29T18:06:44.543Z,92.31
2022-09-29T18:09:47.248Z,93.26
2022-09-29T18:12:48.999Z,93.62
2022-09-29T18:15:50.764Z,93.98
2022-09-29T18:18:58.000Z,95.11
2022-09-29T18:22:01.339Z,95.98
2022-09-29T18:25:03.272Z,96.53
2022-09-29T18:28:04.817Z,96.25
2022-09-29T18:31:12.267Z,97.38
2022-09-29T18:34:18.142Z,98.75
2022-09-29T18:37:19.791Z,99.02
2022-09-29T18:40:22.220Z,100.00
2022-09-29T18:43:25.991Z,100.00
2022-09-29T18:46:29.883Z,100.00
2022-09-29T18:49:31.639Z,100.00
2022-09-29T18:52:34.206Z,100.00
2022-09-29T18:55:35.771Z,100.00
2022-09-29T18:58:38.161Z,100.00
2022-09-29T19:01:39.959Z,100.00
2022-09-29T19:04:41.744Z,100.00
2022-09-29T19:07:43.769Z,100.00
2022-09-29T19:10:49.070Z,100.00
2022-09-29T19:13:52.485Z,100.00
2022-09-29T19:16:55.154Z,100.00
2022-09-29T19:20:00.514Z,100.00
2022-09-29T19:23:05.674Z,100.00
2022-09-29T19:26:11.464Z,100.00
2022-09-29T19:29:13.026Z,100.00
2022-09-29T19:32:14.620Z,100.00
2022-09-29T19:35:17.116Z,100.00
2022-09-29T19:38:18.852Z,100.00
2022-09-29T19:41:21.813Z,100.00
2022-09-29T19:44:23.425Z,100.00
2022-09-29T19:47:25.102Z,100.00
2022-09-29T19:50:45.559Z,100.00
2022-09-29T19:53:49.499Z,100.00
2022-09-29T19:56:52.392Z,100.00
2022-09-29T19:59:54.237Z,100.00
2022-09-29T20:02:55.862Z,100.00
2022-09-29T20:06:01.223Z,100.00
2022-09-29T20:09:03.797Z,100.00
2022-09-29T20:12:05.358Z,100.00
2022-09-29T20:15:07.410Z,100.00
2022-09-29T20:18:08.904Z,100.00
2022-09-29T20:21:11.895Z,100.00
2022-09-29T20:24:14.574Z,100.00
2022-09-29T20:27:16.189Z,100.00
2022-09-29T20:30:20.725Z,100.00
2022-09-29T20:33:23.522Z,100.00
2022-09-29T20:36:25.341Z,100.00
2022-09-29T20:39:26.883Z,100.00
2022-09-29T20:42:28.714Z,100.00
2022-09-29T20:45:30.213Z,100.00
2022-09-29T20:48:32.223Z,100.00
2022-09-29T20:51:37.234Z,100.00
2022-09-29T20:54:39.691Z,100.00
2022-09-29T20:57:46.027Z,100.00
2022-09-29T21:00:47.901Z,100.00
2022-09-29T21:03:59.301Z,100.00
2022-09-29T21:07:00.944Z,100.00
2022-09-29T21:10:03.955Z,100.00
2022-09-29T21:13:05.451Z,100.00
2022-09-29T21:16:07.094Z,100.00
2022-09-29T21:19:09.239Z,100.00
2022-09-29T21:22:11.484Z,100.00
2022-09-29T21:25:13.223Z,100.00
2022-09-29T21:28:14.771Z,100.00
2022-09-29T21:31:17.523Z,100.00
2022-09-29T21:34:19.234Z,100.00
2022-09-29T21:37:20.925Z,100.00
2022-09-29T21:40:24.998Z,100.00
2022-09-29T21:43:26.867Z,100.00
2022-09-29T21:46:29.647Z,100.00
2022-09-29T21:49:31.186Z,100.00
2022-09-29T21:52:36.007Z,100.00
2022-09-29T21:55:41.004Z,100.00
2022-09-29T21:58:42.998Z,100.00
2022-09-29T22:01:45.153Z,100.00
2022-09-29T22:04:46.849Z,100.00
2022-09-29T22:07:48.466Z,100.00
2022-09-29T22:10:50.657Z,100.00
2022-09-29T22:13:52.703Z,100.00
2022-09-29T22:16:54.510Z,100.00
2022-09-29T22:19:56.400Z,100.00
2022-09-29T22:22:57.910Z,100.00
2022-09-29T22:26:00.670Z,100.00
2022-09-29T22:29:02.775Z,100.00
2022-09-29T22:32:04.318Z,100.00
2022-09-29T22:35:05.923Z,100.00
2022-09-29T22:38:08.190Z,100.00
2022-09-29T22:41:10.746Z,100.00
2022-09-29T22:44:12.476Z,100.00
2022-09-29T22:47:13.982Z,100.00
2022-09-29T22:50:15.464Z,100.00
2022-09-29T22:53:16.985Z,100.00
2022-09-29T22:56:19.558Z,100.00
2022-09-29T22:59:21.898Z,100.00
2022-09-29T23:02:23.517Z,100.00
2022-09-29T23:05:25.100Z,100.00
2022-09-29T23:08:26.746Z,100.00
2022-09-29T23:11:30.065Z,100.00
2022-09-29T23:14:31.655Z,100.00
2022-09-29T23:17:33.322Z,100.00
2022-09-29T23:20:34.854Z,100.00
2022-09-29T23:23:36.576Z,100.00
2022-09-29T23:26:38.120Z,100.00
2022-09-29T23:29:39.689Z,100.00
2022-09-29T23:32:41.328Z,100.00
2022-09-29T23:35:42.887Z,100.00
2022-09-29T23:39:02.870Z,100.00
2022-09-29T23:42:04.501Z,100.00
2022-09-29T23:45:06.224Z,100.00
2022-09-29T23:48:07.790Z,100.00
2022-09-29T23:51:09.385Z,100.00
2022-09-29T23:54:12.095Z,100.00
2022-09-29T23:57:13.648Z,100.00
